Time;durP1;ratioP1;P1;durP2;ratioP2;P2;SDS_P1;SDS_P2;PMS_P1;PMS_P2;Temp;Humidity;BMP_temperature;BMP_pressure;BME280_temperature;BME280_humidity;BME280_pressure;Samples;Min_cycle;Max_cycle;Signal;HPM_P1;HPM_P2
2023/09/06 00:01:07;;;;;;;6.97;3.10;;;27.70;44.70;;;;;;7567943;23;20730;-78
2023/09/06 00:04:08;;;;;;;4.95;2.63;;;27.60;44.60;;;;;;7594835;23;20009;-78
2023/09/06 00:07:09;;;;;;;6.38;2.92;;;27.70;44.70;;;;;;7593839;23;20016;-78
2023/09/06 00:10:10;;;;;;;3.70;2.72;;;27.60;44.70;;;;;;7567968;23;20014;-77
2023/09/06 00:13:13;;;;;;;4.85;3.17;;;27.60;44.70;;;;;;7594247;23;20025;-78
2023/09/06 00:16:15;;;;;;;5.22;2.90;;;27.60;44.80;;;;;;7567647;23;20009;-77
2023/09/06 00:19:17;;;;;;;5.72;2.92;;;27.50;44.70;;;;;;7594764;23;20009;-78
2023/09/06 00:22:20;;;;;;;4.63;2.90;;;27.50;44.80;;;;;;7568297;23;20014;-78
2023/09/06 00:25:21;;;;;;;9.00;2.97;;;27.40;44.90;;;;;;7594816;23;20019;-77
2023/09/06 00:28:24;;;;;;;4.25;2.67;;;27.40;44.90;;;;;;7569455;23;20009;-78
2023/09/06 00:31:25;;;;;;;7.00;3.08;;;27.40;45.00;;;;;;7569785;23;20116;-79
2023/09/06 00:34:27;;;;;;;5.43;2.75;;;27.40;45.00;;;;;;7595049;23;20096;-78
2023/09/06 00:37:35;;;;;;;7.10;2.70;;;27.40;45.10;;;;;;7570646;23;20018;-79
2023/09/06 00:40:38;;;;;;;3.53;2.35;;;27.30;45.10;;;;;;7571134;23;20014;-78
2023/09/06 00:43:38;;;;;;;3.53;2.60;;;27.30;45.30;;;;;;7570170;23;20010;-78
2023/09/06 00:46:39;;;;;;;8.02;2.97;;;27.30;45.40;;;;;;7569381;23;20010;-78
2023/09/06 00:49:41;;;;;;;4.55;2.78;;;27.20;45.50;;;;;;7569264;23;20490;-79
2023/09/06 00:52:43;;;;;;;10.25;3.38;;;27.20;45.50;;;;;;7569971;23;20018;-78
2023/09/06 00:55:44;;;;;;;5.90;2.95;;;27.20;45.90;;;;;;7596075;23;20017;-78
2023/09/06 00:58:46;;;;;;;7.72;3.38;;;27.20;46.50;;;;;;7597193;23;20010;-78
2023/09/06 01:01:47;;;;;;;6.72;3.03;;;27.20;46.60;;;;;;7595930;23;20104;-78
2023/09/06 01:04:48;;;;;;;6.13;2.65;;;27.10;46.70;;;;;;7597500;23;20116;-79
2023/09/06 01:08:00;;;;;;;10.40;2.90;;;27.10;46.80;;;;;;7546666;23;20092;-80
2023/09/06 01:11:21;;;;;;;7.70;2.58;;;27.10;46.80;;;;;;7596632;23;20596;-78
2023/09/06 01:14:22;;;;;;;8.45;2.95;;;27.00;46.90;;;;;;7570331;23;20010;-79
2023/09/06 01:17:26;;;;;;;7.82;2.95;;;27.00;47.00;;;;;;7573337;23;20040;-78
2023/09/06 01:20:33;;;;;;;5.43;3.00;;;26.90;47.10;;;;;;7548089;23;20007;-78
2023/09/06 01:23:38;;;;;;;8.95;3.10;;;26.90;47.30;;;;;;7597285;23;20041;-79
2023/09/06 01:26:39;;;;;;;5.38;3.22;;;26.90;47.50;;;;;;7595748;23;20013;-78
2023/09/06 01:29:40;;;;;;;3.75;2.67;;;26.80;47.60;;;;;;7569956;23;20013;-80
2023/09/06 01:32:41;;;;;;;4.63;2.90;;;26.80;47.80;;;;;;7568692;23;20018;-78
2023/09/06 01:35:43;;;;;;;8.75;2.88;;;26.80;47.90;;;;;;7569506;23;20097;-79
2023/09/06 01:38:44;;;;;;;5.15;2.97;;;26.70;48.00;;;;;;7544656;23;20041;-77
2023/09/06 01:41:44;;;;;;;8.02;3.35;;;26.70;48.10;;;;;;7569516;23;20467;-78
2023/09/06 01:44:45;;;;;;;6.55;3.53;;;26.60;48.20;;;;;;7569452;23;20340;-78
2023/09/06 01:47:48;;;;;;;5.28;3.00;;;26.60;48.20;;;;;;7569307;23;20045;-78
2023/09/06 01:50:49;;;;;;;5.43;2.95;;;26.60;48.20;;;;;;7567869;23;20018;-78
2023/09/06 01:53:50;;;;;;;7.95;2.70;;;26.50;48.10;;;;;;7568311;23;20037;-77
2023/09/06 01:56:50;;;;;;;6.13;2.70;;;26.50;48.20;;;;;;7594552;23;20106;-78
2023/09/06 01:59:51;;;;;;;5.35;3.08;;;26.50;48.10;;;;;;7567991;23;20106;-78
2023/09/06 02:02:52;;;;;;;5.10;2.90;;;26.40;48.10;;;;;;7568520;23;20010;-78
2023/09/06 02:05:53;;;;;;;10.35;2.63;;;26.40;48.20;;;;;;7594255;23;20010;-77
2023/09/06 02:08:54;;;;;;;4.35;2.50;;;26.30;48.20;;;;;;7568006;23;20100;-77
2023/09/06 02:11:55;;;;;;;12.30;3.10;;;26.30;48.30;;;;;;7567849;23;20019;-77
2023/09/06 02:14:56;;;;;;;6.57;3.00;;;26.20;48.50;;;;;;7568519;23;20017;-78
2023/09/06 02:17:57;;;;;;;3.75;2.78;;;26.10;48.70;;;;;;7568605;23;20707;-78
2023/09/06 02:20:59;;;;;;;4.43;2.83;;;26.00;48.80;;;;;;7568650;23;20010;-77
2023/09/06 02:24:00;;;;;;;5.07;2.90;;;25.90;48.90;;;;;;7593737;23;20080;-78
2023/09/06 02:27:00;;;;;;;6.75;2.75;;;25.90;49.00;;;;;;7569463;23;20005;-80
2023/09/06 02:30:06;;;;;;;8.75;3.15;;;25.90;49.20;;;;;;7569381;23;20041;-78
2023/09/06 02:33:14;;;;;;;6.07;3.05;;;25.80;49.30;;;;;;7595774;23;20013;-77
2023/09/06 02:36:15;;;;;;;4.55;3.08;;;25.70;49.30;;;;;;7595543;23;20080;-78
2023/09/06 02:39:15;;;;;;;10.18;3.22;;;25.70;49.40;;;;;;7569413;23;20080;-78
2023/09/06 02:42:16;;;;;;;10.05;3.35;;;25.70;49.50;;;;;;7595122;23;20118;-78
2023/09/06 02:45:18;;;;;;;6.50;3.03;;;25.60;49.60;;;;;;7568698;23;20002;-78
2023/09/06 02:48:19;;;;;;;5.53;2.75;;;25.60;49.70;;;;;;7595257;23;20010;-77
2023/09/06 02:51:20;;;;;;;5.00;3.22;;;25.50;49.80;;;;;;7595361;23;20332;-77
2023/09/06 02:54:21;;;;;;;7.35;3.35;;;25.50;50.00;;;;;;7568920;23;20053;-78
2023/09/06 02:57:23;;;;;;;4.45;2.78;;;25.40;50.10;;;;;;7544996;23;20367;-77
2023/09/06 03:00:24;;;;;;;5.50;3.08;;;25.40;50.20;;;;;;7594999;23;20014;-79
2023/09/06 03:03:28;;;;;;;6.90;3.40;;;25.30;50.30;;;;;;7595671;23;20010;-78
2023/09/06 03:06:33;;;;;;;4.35;2.95;;;25.30;50.60;;;;;;7568928;23;20104;-78
2023/09/06 03:09:38;;;;;;;4.57;3.03;;;25.30;50.80;;;;;;7593925;23;20014;-79
2023/09/06 03:12:41;;;;;;;6.35;3.00;;;25.30;50.90;;;;;;7596564;23;20062;-78
2023/09/06 03:15:43;;;;;;;10.55;3.40;;;25.20;50.90;;;;;;7571370;23;20396;-79
2023/09/06 03:18:45;;;;;;;4.28;3.00;;;25.20;50.90;;;;;;7570145;23;20010;-78
2023/09/06 03:21:47;;;;;;;4.90;3.03;;;25.20;51.00;;;;;;7568894;23;20013;-78
2023/09/06 03:24:55;;;;;;;15.20;3.17;;;25.20;51.00;;;;;;7568253;23;20020;-78
2023/09/06 03:28:00;;;;;;;7.65;3.05;;;25.10;51.00;;;;;;7568236;23;20049;-78
2023/09/06 03:31:02;;;;;;;5.10;3.25;;;25.10;51.30;;;;;;7592588;23;20006;-78
2023/09/06 03:34:03;;;;;;;6.95;3.17;;;25.00;51.30;;;;;;7568847;23;20382;-78
2023/09/06 03:37:11;;;;;;;6.03;2.95;;;24.90;51.50;;;;;;7568187;23;20014;-78
2023/09/06 03:40:25;;;;;;;9.97;3.27;;;24.90;51.70;;;;;;7543077;23;20014;-78
2023/09/06 03:43:32;;;;;;;7.75;3.35;;;24.80;51.80;;;;;;7568255;23;20408;-78
2023/09/06 03:46:34;;;;;;;11.68;2.70;;;24.80;51.90;;;;;;7567485;23;20048;-78
2023/09/06 03:49:35;;;;;;;7.05;3.13;;;24.70;52.00;;;;;;7566633;23;20018;-78
2023/09/06 03:52:36;;;;;;;7.00;3.38;;;24.60;52.00;;;;;;7567557;23;20416;-78
2023/09/06 03:55:38;;;;;;;7.50;2.92;;;24.70;52.10;;;;;;7567200;23;20010;-77
2023/09/06 03:58:40;;;;;;;4.68;3.03;;;24.60;52.00;;;;;;7591737;23;20408;-78
2023/09/06 04:01:43;;;;;;;9.10;3.30;;;24.60;51.90;;;;;;7567076;23;20022;-78
2023/09/06 04:04:45;;;;;;;6.68;3.25;;;24.60;51.90;;;;;;7567598;23;20376;-77
2023/09/06 04:07:47;;;;;;;6.53;3.10;;;24.60;52.00;;;;;;7567848;23;20100;-77
2023/09/06 04:10:49;;;;;;;8.52;3.85;;;24.60;52.00;;;;;;7566929;23;20026;-78
2023/09/06 04:13:51;;;;;;;5.13;2.92;;;24.60;52.00;;;;;;7567214;23;20329;-79
2023/09/06 04:16:56;;;;;;;6.32;2.90;;;24.50;51.90;;;;;;7567636;23;20006;-78
2023/09/06 04:19:57;;;;;;;4.88;3.15;;;24.50;52.00;;;;;;7567706;23;20018;-78
2023/09/06 04:22:59;;;;;;;6.20;3.45;;;24.50;51.90;;;;;;7567396;23;20100;-78
2023/09/06 04:26:00;;;;;;;5.35;2.90;;;24.50;51.90;;;;;;7542754;23;20466;-78
2023/09/06 04:29:05;;;;;;;8.77;2.90;;;24.50;51.90;;;;;;7567941;23;20018;-78
2023/09/06 04:32:06;;;;;;;9.40;3.20;;;24.50;51.80;;;;;;7542913;23;20459;-77
2023/09/06 04:35:07;;;;;;;4.53;2.78;;;24.50;51.70;;;;;;7567241;23;20443;-78
2023/09/06 04:38:12;;;;;;;6.90;3.30;;;24.50;51.70;;;;;;7566450;23;20025;-78
2023/09/06 04:41:14;;;;;;;7.95;3.13;;;24.50;51.70;;;;;;7567139;23;20101;-78
2023/09/06 04:44:24;;;;;;;15.82;3.60;;;24.50;51.60;;;;;;7569985;23;20010;-77
2023/09/06 04:47:27;;;;;;;5.85;2.97;;;24.50;51.70;;;;;;7567193;23;20120;-78
2023/09/06 04:50:28;;;;;;;7.28;3.22;;;24.50;51.70;;;;;;7568152;23;20014;-79
2023/09/06 04:53:29;;;;;;;5.97;2.95;;;24.50;51.70;;;;;;7593683;23;20045;-78
2023/09/06 04:56:31;;;;;;;6.38;2.97;;;24.50;51.50;;;;;;7570035;23;20013;-79
2023/09/06 04:59:34;;;;;;;9.52;3.38;;;24.50;51.60;;;;;;7569954;23;20024;-78
2023/09/06 05:02:37;;;;;;;5.40;3.10;;;24.50;51.50;;;;;;7570914;23;20601;-78
2023/09/06 05:05:40;;;;;;;7.97;3.40;;;24.50;51.40;;;;;;7596293;23;20081;-77
2023/09/06 05:08:41;;;;;;;8.95;2.75;;;24.50;51.40;;;;;;7570575;23;20037;-79
2023/09/06 05:11:47;;;;;;;8.57;3.13;;;24.50;51.40;;;;;;7547354;23;20131;-78
2023/09/06 05:14:48;;;;;;;7.55;3.25;;;24.40;51.30;;;;;;7572697;23;20641;-78
2023/09/06 05:17:49;;;;;;;6.43;3.15;;;24.40;51.30;;;;;;7570225;23;20010;-77
2023/09/06 05:20:51;;;;;;;9.27;3.25;;;24.40;51.40;;;;;;7544955;23;20017;-77
2023/09/06 05:23:53;;;;;;;7.18;3.03;;;24.50;51.50;;;;;;7569110;23;20010;-78
2023/09/06 05:26:54;;;;;;;10.00;3.30;;;24.50;51.40;;;;;;7568938;23;20018;-77
2023/09/06 05:29:56;;;;;;;5.30;3.35;;;24.40;51.30;;;;;;7568930;23;20025;-78
2023/09/06 05:32:57;;;;;;;9.57;3.53;;;24.50;51.30;;;;;;7568400;23;20018;-77
2023/09/06 05:35:59;;;;;;;11.18;3.33;;;24.50;51.40;;;;;;7569876;23;20092;-79
2023/09/06 05:39:00;;;;;;;7.07;2.83;;;24.40;51.30;;;;;;7595036;23;20022;-78
2023/09/06 05:42:02;;;;;;;9.35;3.40;;;24.50;51.50;;;;;;7568522;23;20191;-78
2023/09/06 05:45:06;;;;;;;6.20;2.90;;;24.50;51.50;;;;;;7569090;23;20014;-77
2023/09/06 05:48:07;;;;;;;7.22;3.30;;;24.50;51.70;;;;;;7570739;23;20021;-76
2023/09/06 05:51:08;;;;;;;8.32;3.05;;;24.50;51.60;;;;;;7569768;23;20092;-78
2023/09/06 05:54:09;;;;;;;9.68;3.10;;;24.50;51.50;;;;;;7571316;23;20116;-79
2023/09/06 05:57:12;;;;;;;5.03;3.13;;;24.50;52.10;;;;;;7569676;23;20229;-79
2023/09/06 06:00:15;;;;;;;6.07;2.85;;;24.50;51.50;;;;;;7546803;23;20021;-77
2023/09/06 06:03:26;;;;;;;8.45;3.17;;;24.60;52.00;;;;;;7571106;23;20120;-78
2023/09/06 06:06:28;;;;;;;5.18;2.63;;;24.60;51.30;;;;;;7569888;23;20401;-77
2023/09/06 06:09:30;;;;;;;18.60;3.33;;;24.70;51.20;;;;;;7567532;23;20085;-78
2023/09/06 06:12:32;;;;;;;14.63;3.13;;;24.70;51.10;;;;;;7569161;23;20021;-77
2023/09/06 06:15:34;;;;;;;8.25;3.00;;;24.70;51.10;;;;;;7592538;23;20018;-77
2023/09/06 06:18:35;;;;;;;4.40;2.65;;;24.70;51.00;;;;;;7593742;23;20017;-78
2023/09/06 06:21:37;;;;;;;5.80;3.25;;;24.60;50.90;;;;;;7593639;23;20017;-77
2023/09/06 06:24:41;;;;;;;15.75;3.17;;;24.70;50.90;;;;;;7566992;23;20010;-78
2023/09/06 06:27:42;;;;;;;10.30;3.47;;;24.70;50.80;;;;;;7567352;23;20045;-78
2023/09/06 06:30:43;;;;;;;9.68;3.10;;;24.70;50.80;;;;;;7592894;23;20391;-77
2023/09/06 06:33:44;;;;;;;6.55;2.90;;;24.70;50.70;;;;;;7543487;23;20088;-79
2023/09/06 06:36:46;;;;;;;16.55;3.25;;;24.90;50.60;;;;;;7543657;23;20018;-78
2023/09/06 06:39:47;;;;;;;4.93;2.78;;;24.80;50.50;;;;;;7567056;23;20062;-79
2023/09/06 06:42:47;;;;;;;7.45;3.00;;;24.80;50.40;;;;;;7593731;23;20031;-78
2023/09/06 06:45:54;;;;;;;8.90;3.20;;;24.90;50.20;;;;;;7567885;23;20014;-78
2023/09/06 06:48:56;;;;;;;8.90;3.25;;;25.00;50.10;;;;;;7594245;23;20024;-78
2023/09/06 06:51:57;;;;;;;6.80;3.00;;;25.00;49.80;;;;;;7566160;23;20065;-77
2023/09/06 06:54:58;;;;;;;4.80;2.72;;;25.10;49.70;;;;;;7567228;23;20067;-78
2023/09/06 06:57:59;;;;;;;11.70;3.50;;;25.10;49.60;;;;;;7592486;23;20101;-77
2023/09/06 07:01:00;;;;;;;4.78;2.75;;;25.20;49.60;;;;;;7592594;23;20010;-79
2023/09/06 07:04:04;;;;;;;4.82;2.75;;;25.30;49.60;;;;;;7566803;23;20014;-78
2023/09/06 07:07:05;;;;;;;9.27;3.50;;;25.30;49.50;;;;;;7590599;23;20105;-78
2023/09/06 07:10:07;;;;;;;10.98;3.20;;;25.50;49.60;;;;;;7566612;23;20144;-78
2023/09/06 07:13:08;;;;;;;11.35;3.20;;;25.50;49.40;;;;;;7567791;23;20014;-78
2023/09/06 07:16:09;;;;;;;8.48;3.47;;;25.70;49.30;;;;;;7567287;23;20040;-78
2023/09/06 07:19:10;;;;;;;6.65;3.38;;;25.70;49.20;;;;;;7567007;23;20002;-77
2023/09/06 07:22:10;;;;;;;5.97;3.55;;;25.80;49.00;;;;;;7593157;23;20558;-78
2023/09/06 07:25:13;;;;;;;4.40;3.10;;;26.00;48.90;;;;;;7566374;23;20014;-78
2023/09/06 07:28:14;;;;;;;6.72;3.38;;;26.00;48.70;;;;;;7565986;23;20033;-76
2023/09/06 07:31:15;;;;;;;7.93;3.33;;;26.10;48.60;;;;;;7591711;23;20467;-77
2023/09/06 07:34:16;;;;;;;5.28;3.80;;;26.10;48.40;;;;;;7565134;23;20010;-77
2023/09/06 07:37:17;;;;;;;6.40;3.47;;;26.20;48.40;;;;;;7566369;23;20695;-77
2023/09/06 07:40:17;;;;;;;6.53;3.50;;;26.30;48.30;;;;;;7565504;23;20385;-78
2023/09/06 07:43:19;;;;;;;6.90;3.30;;;26.40;48.10;;;;;;7566675;23;20443;-78
2023/09/06 07:46:23;;;;;;;5.53;2.92;;;26.60;47.90;;;;;;7566387;23;20082;-77
2023/09/06 07:49:26;;;;;;;6.05;2.85;;;26.70;47.70;;;;;;7565416;23;20205;-79
2023/09/06 07:52:27;;;;;;;10.70;3.00;;;26.90;47.60;;;;;;7565611;23;20071;-78
2023/09/06 07:55:27;;;;;;;9.95;3.53;;;27.00;47.50;;;;;;7565190;23;20464;-78
2023/09/06 07:58:28;;;;;;;9.35;3.72;;;27.20;47.30;;;;;;7565605;23;20118;-77
2023/09/06 08:01:29;;;;;;;8.02;3.38;;;27.30;47.30;;;;;;7591232;23;20041;-78
2023/09/06 08:04:30;;;;;;;8.98;4.32;;;27.40;47.30;;;;;;7565918;23;20069;-78
2023/09/06 08:07:32;;;;;;;7.43;4.00;;;27.50;47.20;;;;;;7593259;23;20013;-78
2023/09/06 08:10:34;;;;;;;9.45;4.30;;;27.70;47.00;;;;;;7566430;23;20089;-78
2023/09/06 08:13:37;;;;;;;8.43;4.10;;;27.80;46.80;;;;;;7592877;23;20082;-78
2023/09/06 08:16:38;;;;;;;5.63;3.60;;;27.90;46.80;;;;;;7566037;23;20436;-76
2023/09/06 08:19:39;;;;;;;6.82;3.85;;;28.00;46.70;;;;;;7592130;23;20044;-80
2023/09/06 08:22:40;;;;;;;8.35;3.25;;;28.10;46.50;;;;;;7593460;23;20441;-79
2023/09/06 08:25:41;;;;;;;14.70;3.60;;;28.30;46.30;;;;;;7566731;23;20048;-78
2023/09/06 08:28:42;;;;;;;6.60;3.63;;;28.40;46.10;;;;;;7593075;23;20018;-79
2023/09/06 08:31:43;;;;;;;15.05;4.10;;;28.40;45.80;;;;;;7593260;23;20377;-76
2023/09/06 08:34:44;;;;;;;10.38;3.50;;;28.50;45.70;;;;;;7593352;23;20013;-77
2023/09/06 08:37:46;;;;;;;13.02;3.67;;;28.50;45.50;;;;;;7566938;23;20017;-78
2023/09/06 08:40:47;;;;;;;10.68;3.70;;;28.60;45.50;;;;;;7592238;23;20490;-79
2023/09/06 08:43:50;;;;;;;7.68;3.97;;;28.60;45.40;;;;;;7593126;23;20025;-78
2023/09/06 08:46:53;;;;;;;9.48;3.92;;;28.70;45.30;;;;;;7566189;23;20060;-78
2023/09/06 08:49:54;;;;;;;6.18;3.47;;;28.90;45.10;;;;;;7593140;23;20037;-77
2023/09/06 08:52:56;;;;;;;11.60;3.95;;;28.90;44.80;;;;;;7566702;23;20112;-77
2023/09/06 08:55:59;;;;;;;5.53;3.55;;;28.90;44.70;;;;;;7566458;23;20580;-78
2023/09/06 08:59:00;;;;;;;9.80;3.90;;;29.00;44.80;;;;;;7592439;23;20016;-78
2023/09/06 09:02:02;;;;;;;9.63;4.32;;;29.10;44.80;;;;;;7592828;23;20014;-78
2023/09/06 09:05:05;;;;;;;6.82;3.78;;;29.20;44.60;;;;;;7565546;23;20014;-78
2023/09/06 09:08:08;;;;;;;5.45;3.60;;;29.30;44.40;;;;;;7565272;23;20040;-78
2023/09/06 09:11:12;;;;;;;12.23;4.35;;;29.30;44.10;;;;;;7565178;23;20089;-77
2023/09/06 09:14:24;;;;;;;9.38;3.83;;;29.40;44.00;;;;;;7591002;23;20424;-79
2023/09/06 09:17:26;;;;;;;7.07;4.05;;;29.50;43.80;;;;;;7565097;23;20096;-78
2023/09/06 09:20:27;;;;;;;8.70;3.65;;;29.60;43.70;;;;;;7564080;23;20052;-79
2023/09/06 09:23:29;;;;;;;8.43;3.88;;;29.60;43.50;;;;;;7564503;23;20085;-78
2023/09/06 09:26:32;;;;;;;8.20;3.67;;;29.80;43.40;;;;;;7588438;23;20024;-78
2023/09/06 09:29:35;;;;;;;11.23;4.68;;;29.80;43.10;;;;;;7564022;23;20024;-76
2023/09/06 09:32:37;;;;;;;10.73;3.50;;;29.90;43.10;;;;;;7564449;23;20094;-76
2023/09/06 09:35:40;;;;;;;6.35;4.00;;;29.90;42.90;;;;;;7592053;23;20017;-79
2023/09/06 09:38:42;;;;;;;4.95;3.45;;;29.90;42.90;;;;;;7566838;23;20009;-78
2023/09/06 09:41:43;;;;;;;9.10;3.70;;;30.00;42.80;;;;;;7568189;23;20014;-78
2023/09/06 09:44:59;;;;;;;10.70;3.53;;;30.10;42.60;;;;;;7568253;23;20080;-78
2023/09/06 09:48:01;;;;;;;7.22;4.13;;;30.10;42.30;;;;;;7594394;23;20014;-80
2023/09/06 09:51:06;;;;;;;10.48;4.03;;;30.20;42.00;;;;;;7593865;23;20014;-78
2023/09/06 09:54:10;;;;;;;6.50;3.30;;;30.30;41.90;;;;;;7569240;23;20479;-78
2023/09/06 09:57:12;;;;;;;4.00;3.05;;;30.40;41.60;;;;;;7595689;23;20013;-78
2023/09/06 10:00:14;;;;;;;5.28;3.30;;;30.40;41.30;;;;;;7595593;23;20014;-79
2023/09/06 10:03:15;;;;;;;14.98;4.03;;;30.50;41.20;;;;;;7595610;23;20084;-79
2023/09/06 10:06:17;;;;;;;6.03;3.38;;;30.50;41.10;;;;;;7595158;23;20081;-79
2023/09/06 10:09:19;;;;;;;7.63;3.20;;;30.60;41.00;;;;;;7568239;23;20014;-77
2023/09/06 10:12:21;;;;;;;10.10;3.42;;;30.60;41.00;;;;;;7543067;23;20105;-77
2023/09/06 10:15:23;;;;;;;10.90;3.53;;;30.60;40.90;;;;;;7567430;23;20064;-78
2023/09/06 10:18:24;;;;;;;8.30;4.13;;;30.70;40.90;;;;;;7567514;23;20367;-77
2023/09/06 10:21:27;;;;;;;12.68;3.92;;;30.80;40.90;;;;;;7593004;23;20014;-77
2023/09/06 10:24:32;;;;;;;8.00;3.40;;;30.80;40.80;;;;;;7566788;23;20017;-79
2023/09/06 10:27:33;;;;;;;7.03;3.00;;;30.80;40.70;;;;;;7566603;23;20358;-78
2023/09/06 10:30:34;;;;;;;6.57;3.25;;;30.90;40.60;;;;;;7592747;23;20061;-78
2023/09/06 10:33:43;;;;;;;8.07;3.50;;;30.90;40.50;;;;;;7592099;23;20022;-78
2023/09/06 10:36:51;;;;;;;12.15;3.42;;;30.80;40.20;;;;;;7592400;23;20080;-80
2023/09/06 10:39:53;;;;;;;7.80;2.95;;;31.00;40.10;;;;;;7568623;23;20048;-78
2023/09/06 10:42:54;;;;;;;6.95;3.28;;;31.10;39.80;;;;;;7592542;23;20010;-78
2023/09/06 10:46:18;;;;;;;10.63;3.28;;;31.30;39.60;;;;;;7595263;23;20053;-78
2023/09/06 10:49:22;;;;;;;7.35;3.03;;;31.60;39.20;;;;;;7567554;23;20020;-79
2023/09/06 10:52:46;;;;;;;6.88;3.08;;;31.80;38.60;;;;;;7567330;23;20014;-78
2023/09/06 10:55:48;;;;;;;7.60;3.25;;;32.00;38.20;;;;;;7566650;23;20097;-78
2023/09/06 10:58:49;;;;;;;5.45;2.50;;;32.30;37.90;;;;;;7594819;23;20380;-78
2023/09/06 11:02:26;;;;;;;5.28;2.90;;;32.60;37.30;;;;;;7568536;23;20020;-79
2023/09/06 11:05:38;;;;;;;12.38;3.20;;;32.80;36.90;;;;;;7447370;23;20036;-79
2023/09/06 11:08:40;;;;;;;13.95;3.22;;;33.00;36.30;;;;;;7423671;23;20123;-78
2023/09/06 11:11:41;;;;;;;4.43;2.92;;;33.10;35.90;;;;;;7448061;23;20086;-78
2023/09/06 11:14:49;;;;;;;5.75;2.63;;;33.30;35.80;;;;;;7448010;23;20038;-78
2023/09/06 11:17:54;;;;;;;4.78;2.78;;;33.70;35.50;;;;;;7424599;23;20019;-78
2023/09/06 11:20:55;;;;;;;5.72;2.70;;;34.10;34.80;;;;;;7447082;23;20461;-78
2023/09/06 11:23:56;;;;;;;5.45;2.92;;;34.30;34.10;;;;;;7423614;23;20476;-78
2023/09/06 11:26:57;;;;;;;3.15;2.53;;;34.40;33.80;;;;;;7447306;23;20115;-80
2023/09/06 11:30:16;;;;;;;5.40;3.03;;;34.50;33.40;;;;;;7447328;23;20015;-79
2023/09/06 11:33:17;;;;;;;6.45;2.83;;;34.60;33.20;;;;;;7447274;23;20012;-77
2023/09/06 11:36:21;;;;;;;4.10;2.80;;;34.90;32.90;;;;;;7423574;23;20350;-78
2023/09/06 11:39:28;;;;;;;4.18;2.65;;;35.10;32.70;;;;;;7446917;23;20008;-78
2023/09/06 11:42:31;;;;;;;4.65;2.60;;;35.30;32.20;;;;;;7553891;23;20014;-78
2023/09/06 11:45:32;;;;;;;5.32;2.88;;;35.50;31.90;;;;;;7593828;23;20006;-79
2023/09/06 11:48:35;;;;;;;7.80;2.80;;;35.60;31.50;;;;;;7593511;23;20010;-80
2023/09/06 11:51:36;;;;;;;4.75;2.58;;;35.80;31.30;;;;;;7592685;23;20020;-77
2023/09/06 11:54:39;;;;;;;5.13;2.85;;;35.90;31.00;;;;;;7566524;23;20002;-77
2023/09/06 11:57:41;;;;;;;4.13;2.30;;;36.20;30.70;;;;;;7569402;23;20062;-77
2023/09/06 12:00:47;;;;;;;5.93;2.65;;;36.50;30.30;;;;;;7570177;23;20010;-78
2023/09/06 12:03:48;;;;;;;3.13;2.50;;;37.00;29.90;;;;;;7571117;23;20010;-80
2023/09/06 12:06:51;;;;;;;4.88;2.50;;;37.20;29.70;;;;;;7594907;23;20526;-78
2023/09/06 12:09:55;;;;;;;2.58;2.17;;;37.60;29.10;;;;;;7594302;23;20010;-79
2023/09/06 12:12:56;;;;;;;7.72;2.25;;;37.80;28.60;;;;;;7568339;23;20029;-79
2023/09/06 12:16:00;;;;;;;4.95;2.38;;;38.00;28.40;;;;;;7595423;23;20085;-79
2023/09/06 12:19:02;;;;;;;8.85;2.40;;;38.30;28.20;;;;;;7570061;23;20010;-79
2023/09/06 12:22:05;;;;;;;3.67;2.13;;;38.80;27.80;;;;;;7592622;23;20016;-79
2023/09/06 12:25:06;;;;;;;7.70;2.83;;;39.10;27.40;;;;;;7567576;23;20107;-80
2023/09/06 12:28:07;;;;;;;5.00;2.80;;;39.50;26.80;;;;;;7593626;23;20006;-80
2023/09/06 12:31:08;;;;;;;15.38;2.20;;;39.80;26.60;;;;;;7566759;23;20017;-79
2023/09/06 12:34:09;;;;;;;10.60;2.40;;;40.30;26.20;;;;;;7593377;23;20010;-78
2023/09/06 12:37:09;;;;;;;2.40;2.20;;;40.90;25.70;;;;;;7542804;23;20014;-78
2023/09/06 12:40:13;;;;;;;7.90;2.47;;;41.30;25.20;;;;;;7566211;23;20381;-79
2023/09/06 12:43:14;;;;;;;4.20;2.17;;;41.60;24.90;;;;;;7592122;23;20045;-78
2023/09/06 12:46:15;;;;;;;3.20;2.17;;;41.80;24.60;;;;;;7590091;23;20017;-78
2023/09/06 12:49:16;;;;;;;7.65;2.30;;;42.00;24.40;;;;;;7591817;23;20455;-78
2023/09/06 12:52:21;;;;;;;5.75;2.33;;;42.30;24.30;;;;;;7589810;23;20021;-78
2023/09/06 12:55:22;;;;;;;3.20;2.20;;;42.80;24.00;;;;;;7592741;23;20013;-78
2023/09/06 12:58:23;;;;;;;2.70;2.08;;;43.20;23.60;;;;;;7592827;23;20436;-78
2023/09/06 13:01:24;;;;;;;5.18;2.25;;;43.40;23.30;;;;;;7567129;23;20009;-78
2023/09/06 13:04:25;;;;;;;3.15;2.20;;;43.60;23.20;;;;;;7567097;23;20072;-79
2023/09/06 13:07:26;;;;;;;5.13;2.40;;;43.90;22.90;;;;;;7567051;23;20088;-78
2023/09/06 13:10:28;;;;;;;12.73;2.58;;;44.10;22.80;;;;;;7566792;23;20077;-77
2023/09/06 13:13:29;;;;;;;3.05;2.40;;;44.30;22.50;;;;;;7545793;23;20443;-78
2023/09/06 13:16:31;;;;;;;5.05;2.10;;;44.20;22.50;;;;;;7595171;23;20045;-78
2023/09/06 13:19:32;;;;;;;3.83;2.08;;;44.30;22.40;;;;;;7568482;23;20061;-78
2023/09/06 13:22:33;;;;;;;6.68;2.40;;;44.20;22.40;;;;;;7595453;23;20077;-79
2023/09/06 13:25:37;;;;;;;5.78;2.60;;;44.30;22.50;;;;;;7597584;23;20093;-79
2023/09/06 13:28:39;;;;;;;5.13;2.35;;;44.40;22.30;;;;;;7594923;23;20006;-79
2023/09/06 13:31:40;;;;;;;3.03;1.90;;;44.60;22.20;;;;;;7569271;23;20013;-82
2023/09/06 13:34:41;;;;;;;2.72;2.03;;;44.60;22.10;;;;;;7595687;23;20005;-78
2023/09/06 13:37:42;;;;;;;5.07;2.15;;;44.50;22.10;;;;;;7546985;23;20006;-78
2023/09/06 13:40:46;;;;;;;4.07;2.55;;;44.40;22.10;;;;;;7568703;23;20120;-77
2023/09/06 13:43:47;;;;;;;3.42;2.20;;;44.60;22.00;;;;;;7570921;23;20013;-78
2023/09/06 13:46:48;;;;;;;9.18;2.50;;;44.40;21.90;;;;;;7596435;23;20575;-78
2023/09/06 13:49:50;;;;;;;4.43;2.22;;;43.90;22.20;;;;;;7595268;23;20123;-78
2023/09/06 13:52:51;;;;;;;6.88;2.10;;;43.10;22.80;;;;;;7568509;23;20026;-77
2023/09/06 13:55:52;;;;;;;2.80;2.30;;;42.10;23.60;;;;;;7569895;23;20010;-78
2023/09/06 13:58:53;;;;;;;8.30;2.28;;;41.20;24.40;;;;;;7596398;23;20022;-78
2023/09/06 14:01:54;;;;;;;2.55;2.22;;;40.10;25.30;;;;;;7568478;23;20113;-78
2023/09/06 14:04:57;;;;;;;5.22;2.47;;;39.20;26.20;;;;;;7570066;23;20065;-78
2023/09/06 14:07:57;;;;;;;3.05;2.25;;;38.30;27.00;;;;;;7595672;23;20021;-77
2023/09/06 14:10:58;;;;;;;11.15;2.47;;;37.60;27.80;;;;;;7567533;23;20078;-77
2023/09/06 14:13:59;;;;;;;4.10;2.70;;;37.10;28.50;;;;;;7566056;23;20021;-77
2023/09/06 14:17:00;;;;;;;3.92;2.65;;;36.50;29.00;;;;;;7567059;23;20021;-77
2023/09/06 14:20:01;;;;;;;4.88;2.50;;;36.10;29.50;;;;;;7568107;23;20016;-77
2023/09/06 14:23:02;;;;;;;3.90;2.40;;;35.70;30.00;;;;;;7594085;23;20010;-78
2023/09/06 14:26:03;;;;;;;3.92;2.30;;;35.30;30.30;;;;;;7566890;23;20152;-77
2023/09/06 14:29:04;;;;;;;7.13;3.13;;;35.10;30.90;;;;;;7567948;23;20458;-78
2023/09/06 14:32:08;;;;;;;4.68;2.35;;;34.80;31.40;;;;;;7567174;23;20018;-77
2023/09/06 14:35:09;;;;;;;8.15;2.83;;;34.50;31.80;;;;;;7568576;23;20010;-77
2023/09/06 14:38:10;;;;;;;5.55;2.55;;;34.30;32.00;;;;;;7595785;23;20463;-78
2023/09/06 14:41:11;;;;;;;4.07;1.98;;;34.30;32.40;;;;;;7594774;23;20082;-79
2023/09/06 14:44:12;;;;;;;5.18;2.60;;;34.10;32.60;;;;;;7567975;23;20008;-78
2023/09/06 14:47:14;;;;;;;5.40;2.38;;;34.00;32.80;;;;;;7594709;23;20041;-78
2023/09/06 14:50:21;;;;;;;6.28;2.58;;;33.90;33.10;;;;;;7568082;23;20025;-78
2023/09/06 14:53:21;;;;;;;3.40;2.43;;;33.80;33.30;;;;;;7568198;23;20017;-77
2023/09/06 14:56:22;;;;;;;7.55;2.70;;;33.70;33.60;;;;;;7566591;23;20006;-78
2023/09/06 14:59:23;;;;;;;3.25;2.47;;;33.60;33.80;;;;;;7592429;23;20009;-78
2023/09/06 15:02:24;;;;;;;3.95;2.65;;;33.50;33.80;;;;;;7569046;23;20120;-79
2023/09/06 15:05:25;;;;;;;3.65;2.58;;;33.50;33.90;;;;;;7570515;23;20125;-78
2023/09/06 15:08:26;;;;;;;6.75;2.78;;;33.50;34.10;;;;;;7568934;23;20024;-82
2023/09/06 15:11:27;;;;;;;6.50;2.83;;;33.50;34.10;;;;;;7570134;23;20388;-78
2023/09/06 15:14:28;;;;;;;4.25;2.53;;;33.50;34.20;;;;;;7568530;23;20010;-78
2023/09/06 15:17:30;;;;;;;4.70;2.58;;;33.50;34.20;;;;;;7593404;23;20717;-77
2023/09/06 15:20:31;;;;;;;3.38;2.28;;;33.50;34.30;;;;;;7566837;23;20670;-78
2023/09/06 15:23:32;;;;;;;4.32;2.72;;;33.40;34.30;;;;;;7568322;23;20006;-78
2023/09/06 15:26:33;;;;;;;3.75;2.55;;;33.30;34.40;;;;;;7567678;23;20025;-79
2023/09/06 15:29:36;;;;;;;4.72;2.42;;;33.30;34.60;;;;;;7567783;23;20644;-79
2023/09/06 15:32:37;;;;;;;8.60;3.08;;;33.30;34.60;;;;;;7595438;23;20324;-79
2023/09/06 15:35:48;;;;;;;2.85;2.55;;;33.30;34.60;;;;;;7568251;23;20021;-78
2023/09/06 15:39:03;;;;;;;5.72;2.45;;;33.30;34.70;;;;;;7595608;23;20010;-79
2023/09/06 15:42:09;;;;;;;3.65;2.60;;;33.30;34.60;;;;;;7568786;23;20037;-79
2023/09/06 15:45:10;;;;;;;5.65;2.53;;;33.20;34.50;;;;;;7568636;23;20697;-79
2023/09/06 15:48:11;;;;;;;6.53;3.17;;;33.30;34.60;;;;;;7593297;23;20017;-78